sensor_id;sensor_type;location;lat;lon;timestamp;P1;durP1;ratioP1;P2;durP2;ratioP2
26536;SDS011;14204;51.262;5.488;2023-02-01T00:00:08;29.45;;;5.70;;
26536;SDS011;14204;51.262;5.488;2023-02-01T00:02:35;27.55;;;6.47;;
26536;SDS011;14204;51.262;5.488;2023-02-01T00:05:04;26.50;;;6.68;;
26536;SDS011;14204;51.262;5.488;2023-02-01T00:07:30;24.85;;;6.63;;
26536;SDS011;14204;51.262;5.488;2023-02-01T00:09:56;36.42;;;7.30;;
26536;SDS011;14204;51.262;5.488;2023-02-01T00:12:21;28.83;;;6.72;;
26536;SDS011;14204;51.262;5.488;2023-02-01T00:14:47;29.13;;;7.20;;
26536;SDS011;14204;51.262;5.488;2023-02-01T00:17:13;29.48;;;7.47;;
26536;SDS011;14204;51.262;5.488;2023-02-01T00:19:39;23.45;;;6.47;;
26536;SDS011;14204;51.262;5.488;2023-02-01T00:22:04;31.67;;;6.85;;
26536;SDS011;14204;51.262;5.488;2023-02-01T00:24:30;22.70;;;7.28;;
26536;SDS011;14204;51.262;5.488;2023-02-01T00:26:56;20.60;;;5.93;;
26536;SDS011;14204;51.262;5.488;2023-02-01T00:29:21;22.05;;;5.78;;
26536;SDS011;14204;51.262;5.488;2023-02-01T00:31:49;23.95;;;6.50;;
26536;SDS011;14204;51.262;5.488;2023-02-01T00:34:16;26.80;;;6.18;;
26536;SDS011;14204;51.262;5.488;2023-02-01T00:36:43;27.90;;;6.30;;
26536;SDS011;14204;51.262;5.488;2023-02-01T00:39:09;26.58;;;6.25;;
26536;SDS011;14204;51.262;5.488;2023-02-01T00:41:35;26.13;;;6.95;;
26536;SDS011;14204;51.262;5.488;2023-02-01T00:44:00;32.53;;;7.32;;
26536;SDS011;14204;51.262;5.488;2023-02-01T00:46:27;30.05;;;7.40;;
26536;SDS011;14204;51.262;5.488;2023-02-01T00:48:53;31.98;;;7.22;;
26536;SDS011;14204;51.262;5.488;2023-02-01T00:51:20;33.25;;;8.70;;
26536;SDS011;14204;51.262;5.488;2023-02-01T00:53:48;32.85;;;7.38;;
26536;SDS011;14204;51.262;5.488;2023-02-01T00:56:14;22.33;;;6.40;;
26536;SDS011;14204;51.262;5.488;2023-02-01T00:58:40;24.65;;;6.85;;
26536;SDS011;14204;51.262;5.488;2023-02-01T01:01:10;23.88;;;7.15;;
26536;SDS011;14204;51.262;5.488;2023-02-01T01:03:46;25.67;;;6.75;;
26536;SDS011;14204;51.262;5.488;2023-02-01T01:06:15;32.95;;;7.35;;
26536;SDS011;14204;51.262;5.488;2023-02-01T01:08:44;27.65;;;7.43;;
26536;SDS011;14204;51.262;5.488;2023-02-01T01:11:13;25.52;;;6.60;;
26536;SDS011;14204;51.262;5.488;2023-02-01T01:13:41;27.70;;;7.82;;
26536;SDS011;14204;51.262;5.488;2023-02-01T01:16:08;27.58;;;6.07;;
26536;SDS011;14204;51.262;5.488;2023-02-01T01:18:35;26.35;;;7.32;;
26536;SDS011;14204;51.262;5.488;2023-02-01T01:21:01;33.17;;;7.07;;
26536;SDS011;14204;51.262;5.488;2023-02-01T01:23:28;32.55;;;7.70;;
26536;SDS011;14204;51.262;5.488;2023-02-01T01:25:54;26.83;;;8.57;;
26536;SDS011;14204;51.262;5.488;2023-02-01T01:28:20;27.73;;;7.88;;
26536;SDS011;14204;51.262;5.488;2023-02-01T01:30:46;28.63;;;8.55;;
26536;SDS011;14204;51.262;5.488;2023-02-01T01:33:11;35.25;;;7.90;;
26536;SDS011;14204;51.262;5.488;2023-02-01T01:35:37;25.42;;;7.88;;
26536;SDS011;14204;51.262;5.488;2023-02-01T01:38:02;25.08;;;6.90;;
26536;SDS011;14204;51.262;5.488;2023-02-01T01:40:28;38.83;;;8.32;;
26536;SDS011;14204;51.262;5.488;2023-02-01T01:42:55;27.13;;;7.65;;
26536;SDS011;14204;51.262;5.488;2023-02-01T01:45:29;37.15;;;7.78;;
26536;SDS011;14204;51.262;5.488;2023-02-01T01:47:57;27.27;;;7.53;;
26536;SDS011;14204;51.262;5.488;2023-02-01T01:50:37;35.53;;;8.18;;
26536;SDS011;14204;51.262;5.488;2023-02-01T01:53:08;31.15;;;8.23;;
26536;SDS011;14204;51.262;5.488;2023-02-01T01:55:38;35.15;;;9.23;;
26536;SDS011;14204;51.262;5.488;2023-02-01T01:58:12;33.65;;;7.93;;
26536;SDS011;14204;51.262;5.488;2023-02-01T02:00:42;26.63;;;8.90;;
26536;SDS011;14204;51.262;5.488;2023-02-01T02:06:06;25.75;;;7.70;;
26536;SDS011;14204;51.262;5.488;2023-02-01T02:08:45;36.40;;;9.38;;
26536;SDS011;14204;51.262;5.488;2023-02-01T02:11:11;34.25;;;8.52;;
26536;SDS011;14204;51.262;5.488;2023-02-01T02:13:40;28.27;;;7.85;;
26536;SDS011;14204;51.262;5.488;2023-02-01T02:33:16;30.90;;;6.88;;
26536;SDS011;14204;51.262;5.488;2023-02-01T02:38:49;27.27;;;7.63;;
26536;SDS011;14204;51.262;5.488;2023-02-01T02:41:21;29.73;;;7.88;;
26536;SDS011;14204;51.262;5.488;2023-02-01T02:44:23;26.02;;;6.45;;
26536;SDS011;14204;51.262;5.488;2023-02-01T02:47:27;28.65;;;6.40;;
26536;SDS011;14204;51.262;5.488;2023-02-01T02:50:09;22.75;;;7.05;;
26536;SDS011;14204;51.262;5.488;2023-02-01T02:53:01;24.27;;;6.47;;
26536;SDS011;14204;51.262;5.488;2023-02-01T02:55:53;30.90;;;8.02;;
26536;SDS011;14204;51.262;5.488;2023-02-01T02:58:39;26.77;;;6.53;;
26536;SDS011;14204;51.262;5.488;2023-02-01T03:01:25;37.85;;;7.28;;
26536;SDS011;14204;51.262;5.488;2023-02-01T03:04:10;31.55;;;6.95;;
26536;SDS011;14204;51.262;5.488;2023-02-01T03:06:42;28.35;;;6.78;;
26536;SDS011;14204;51.262;5.488;2023-02-01T03:09:09;28.48;;;7.55;;
26536;SDS011;14204;51.262;5.488;2023-02-01T03:11:58;26.17;;;6.97;;
26536;SDS011;14204;51.262;5.488;2023-02-01T03:14:48;30.88;;;7.03;;
26536;SDS011;14204;51.262;5.488;2023-02-01T03:17:18;34.08;;;7.13;;
26536;SDS011;14204;51.262;5.488;2023-02-01T03:19:51;24.27;;;6.38;;
26536;SDS011;14204;51.262;5.488;2023-02-01T03:22:20;33.33;;;7.18;;
26536;SDS011;14204;51.262;5.488;2023-02-01T03:24:50;40.83;;;6.35;;
26536;SDS011;14204;51.262;5.488;2023-02-01T03:30:02;31.33;;;6.65;;
26536;SDS011;14204;51.262;5.488;2023-02-01T03:32:32;28.17;;;6.63;;
26536;SDS011;14204;51.262;5.488;2023-02-01T03:35:19;30.75;;;6.85;;
26536;SDS011;14204;51.262;5.488;2023-02-01T03:37:52;35.72;;;8.68;;
26536;SDS011;14204;51.262;5.488;2023-02-01T03:40:27;28.35;;;7.07;;
26536;SDS011;14204;51.262;5.488;2023-02-01T03:42:55;36.40;;;7.47;;
26536;SDS011;14204;51.262;5.488;2023-02-01T03:45:27;30.48;;;6.70;;
26536;SDS011;14204;51.262;5.488;2023-02-01T03:47:58;26.48;;;5.85;;
26536;SDS011;14204;51.262;5.488;2023-02-01T03:50:25;34.70;;;6.93;;
26536;SDS011;14204;51.262;5.488;2023-02-01T03:55:48;24.38;;;6.75;;
26536;SDS011;14204;51.262;5.488;2023-02-01T03:58:16;40.63;;;7.82;;
26536;SDS011;14204;51.262;5.488;2023-02-01T04:00:45;30.08;;;6.15;;
26536;SDS011;14204;51.262;5.488;2023-02-01T04:03:22;25.63;;;6.53;;
26536;SDS011;14204;51.262;5.488;2023-02-01T04:05:49;30.40;;;6.30;;
26536;SDS011;14204;51.262;5.488;2023-02-01T04:08:16;34.45;;;7.10;;
26536;SDS011;14204;51.262;5.488;2023-02-01T04:10:42;38.78;;;6.80;;
26536;SDS011;14204;51.262;5.488;2023-02-01T04:13:08;29.20;;;5.80;;
26536;SDS011;14204;51.262;5.488;2023-02-01T04:15:34;24.40;;;5.53;;
26536;SDS011;14204;51.262;5.488;2023-02-01T04:18:00;29.35;;;6.00;;
26536;SDS011;14204;51.262;5.488;2023-02-01T04:20:26;27.45;;;6.05;;
26536;SDS011;14204;51.262;5.488;2023-02-01T04:22:51;28.38;;;5.70;;
26536;SDS011;14204;51.262;5.488;2023-02-01T04:25:17;23.30;;;6.13;;
26536;SDS011;14204;51.262;5.488;2023-02-01T04:27:43;27.98;;;5.03;;
26536;SDS011;14204;51.262;5.488;2023-02-01T04:30:08;21.13;;;4.93;;
26536;SDS011;14204;51.262;5.488;2023-02-01T04:32:35;29.10;;;5.18;;
26536;SDS011;14204;51.262;5.488;2023-02-01T04:35:02;22.92;;;5.82;;
26536;SDS011;14204;51.262;5.488;2023-02-01T04:37:28;30.20;;;6.13;;
26536;SDS011;14204;51.262;5.488;2023-02-01T04:39:54;24.63;;;5.47;;
26536;SDS011;14204;51.262;5.488;2023-02-01T04:42:19;24.98;;;5.65;;
26536;SDS011;14204;51.262;5.488;2023-02-01T04:44:45;31.20;;;5.50;;
26536;SDS011;14204;51.262;5.488;2023-02-01T04:47:11;37.55;;;6.25;;
26536;SDS011;14204;51.262;5.488;2023-02-01T04:49:37;33.72;;;6.00;;
26536;SDS011;14204;51.262;5.488;2023-02-01T04:52:02;30.42;;;5.43;;
26536;SDS011;14204;51.262;5.488;2023-02-01T04:54:28;31.02;;;5.68;;
26536;SDS011;14204;51.262;5.488;2023-02-01T04:56:54;27.10;;;5.68;;
26536;SDS011;14204;51.262;5.488;2023-02-01T04:59:19;23.40;;;5.07;;
26536;SDS011;14204;51.262;5.488;2023-02-01T05:01:45;35.38;;;6.47;;
26536;SDS011;14204;51.262;5.488;2023-02-01T05:04:11;26.98;;;5.38;;
26536;SDS011;14204;51.262;5.488;2023-02-01T05:06:36;26.45;;;6.05;;
26536;SDS011;14204;51.262;5.488;2023-02-01T05:09:02;26.67;;;5.53;;
26536;SDS011;14204;51.262;5.488;2023-02-01T05:11:27;33.53;;;5.63;;
26536;SDS011;14204;51.262;5.488;2023-02-01T05:14:11;27.80;;;6.10;;
26536;SDS011;14204;51.262;5.488;2023-02-01T05:16:37;33.78;;;6.68;;
26536;SDS011;14204;51.262;5.488;2023-02-01T05:19:03;29.83;;;6.28;;
26536;SDS011;14204;51.262;5.488;2023-02-01T05:21:28;28.40;;;6.22;;
26536;SDS011;14204;51.262;5.488;2023-02-01T05:23:54;30.42;;;6.47;;
26536;SDS011;14204;51.262;5.488;2023-02-01T05:26:34;28.98;;;5.30;;
26536;SDS011;14204;51.262;5.488;2023-02-01T05:29:01;26.45;;;5.32;;
26536;SDS011;14204;51.262;5.488;2023-02-01T05:31:27;23.48;;;5.32;;
26536;SDS011;14204;51.262;5.488;2023-02-01T05:33:52;34.65;;;6.82;;
26536;SDS011;14204;51.262;5.488;2023-02-01T05:36:18;35.90;;;7.25;;
26536;SDS011;14204;51.262;5.488;2023-02-01T05:38:43;31.73;;;6.30;;
26536;SDS011;14204;51.262;5.488;2023-02-01T05:41:09;22.92;;;5.57;;
26536;SDS011;14204;51.262;5.488;2023-02-01T05:43:35;28.10;;;6.22;;
26536;SDS011;14204;51.262;5.488;2023-02-01T05:46:00;24.55;;;5.95;;
26536;SDS011;14204;51.262;5.488;2023-02-01T05:48:26;30.55;;;5.60;;
26536;SDS011;14204;51.262;5.488;2023-02-01T05:50:52;31.00;;;6.20;;
26536;SDS011;14204;51.262;5.488;2023-02-01T05:53:17;35.03;;;5.82;;
26536;SDS011;14204;51.262;5.488;2023-02-01T05:55:43;25.52;;;6.18;;
26536;SDS011;14204;51.262;5.488;2023-02-01T05:58:09;31.45;;;6.28;;
26536;SDS011;14204;51.262;5.488;2023-02-01T06:00:34;28.42;;;5.57;;
26536;SDS011;14204;51.262;5.488;2023-02-01T06:03:00;33.50;;;6.03;;
26536;SDS011;14204;51.262;5.488;2023-02-01T06:05:26;32.63;;;5.95;;
26536;SDS011;14204;51.262;5.488;2023-02-01T06:07:52;38.72;;;6.22;;
26536;SDS011;14204;51.262;5.488;2023-02-01T06:10:18;27.52;;;7.25;;
26536;SDS011;14204;51.262;5.488;2023-02-01T06:12:44;36.95;;;6.65;;
26536;SDS011;14204;51.262;5.488;2023-02-01T06:15:10;30.05;;;6.10;;
26536;SDS011;14204;51.262;5.488;2023-02-01T06:17:36;38.03;;;5.80;;
26536;SDS011;14204;51.262;5.488;2023-02-01T06:20:03;26.73;;;5.78;;
26536;SDS011;14204;51.262;5.488;2023-02-01T06:22:31;33.72;;;6.75;;
26536;SDS011;14204;51.262;5.488;2023-02-01T06:24:57;35.90;;;6.50;;
26536;SDS011;14204;51.262;5.488;2023-02-01T06:27:23;37.45;;;6.30;;
26536;SDS011;14204;51.262;5.488;2023-02-01T06:29:50;38.28;;;6.22;;
26536;SDS011;14204;51.262;5.488;2023-02-01T06:32:15;30.52;;;6.50;;
26536;SDS011;14204;51.262;5.488;2023-02-01T06:34:42;37.92;;;6.43;;
26536;SDS011;14204;51.262;5.488;2023-02-01T06:37:08;25.60;;;6.45;;
26536;SDS011;14204;51.262;5.488;2023-02-01T06:39:36;30.25;;;5.85;;
26536;SDS011;14204;51.262;5.488;2023-02-01T06:42:01;36.88;;;5.80;;
26536;SDS011;14204;51.262;5.488;2023-02-01T06:44:27;27.90;;;5.78;;
26536;SDS011;14204;51.262;5.488;2023-02-01T06:46:53;33.13;;;5.82;;
26536;SDS011;14204;51.262;5.488;2023-02-01T06:49:19;37.75;;;6.18;;
26536;SDS011;14204;51.262;5.488;2023-02-01T06:51:45;40.15;;;5.97;;
26536;SDS011;14204;51.262;5.488;2023-02-01T06:54:11;37.28;;;6.63;;
26536;SDS011;14204;51.262;5.488;2023-02-01T06:56:36;33.97;;;5.82;;
26536;SDS011;14204;51.262;5.488;2023-02-01T06:59:05;26.30;;;5.90;;
26536;SDS011;14204;51.262;5.488;2023-02-01T07:01:32;37.85;;;6.05;;
26536;SDS011;14204;51.262;5.488;2023-02-01T07:03:58;32.22;;;6.75;;
26536;SDS011;14204;51.262;5.488;2023-02-01T07:06:24;32.13;;;5.43;;
26536;SDS011;14204;51.262;5.488;2023-02-01T07:08:50;39.75;;;6.40;;
26536;SDS011;14204;51.262;5.488;2023-02-01T07:11:16;27.23;;;5.65;;
26536;SDS011;14204;51.262;5.488;2023-02-01T07:13:43;30.40;;;6.45;;
26536;SDS011;14204;51.262;5.488;2023-02-01T07:16:11;32.20;;;6.50;;
26536;SDS011;14204;51.262;5.488;2023-02-01T07:18:41;27.00;;;5.43;;
26536;SDS011;14204;51.262;5.488;2023-02-01T07:21:07;35.88;;;6.55;;
26536;SDS011;14204;51.262;5.488;2023-02-01T07:23:33;37.42;;;6.38;;
26536;SDS011;14204;51.262;5.488;2023-02-01T07:26:00;30.17;;;6.55;;
26536;SDS011;14204;51.262;5.488;2023-02-01T07:28:28;30.00;;;6.30;;
26536;SDS011;14204;51.262;5.488;2023-02-01T07:31:01;45.17;;;6.57;;
26536;SDS011;14204;51.262;5.488;2023-02-01T07:33:27;34.83;;;5.78;;
26536;SDS011;14204;51.262;5.488;2023-02-01T07:35:53;28.65;;;7.30;;
26536;SDS011;14204;51.262;5.488;2023-02-01T07:38:18;31.83;;;5.93;;
26536;SDS011;14204;51.262;5.488;2023-02-01T07:40:46;26.15;;;5.85;;
26536;SDS011;14204;51.262;5.488;2023-02-01T07:43:12;29.33;;;6.35;;
26536;SDS011;14204;51.262;5.488;2023-02-01T07:45:37;31.92;;;5.38;;
26536;SDS011;14204;51.262;5.488;2023-02-01T07:48:03;34.20;;;6.65;;
26536;SDS011;14204;51.262;5.488;2023-02-01T07:50:29;24.23;;;5.85;;
26536;SDS011;14204;51.262;5.488;2023-02-01T07:52:57;31.02;;;6.55;;
26536;SDS011;14204;51.262;5.488;2023-02-01T07:55:24;30.95;;;6.32;;
26536;SDS011;14204;51.262;5.488;2023-02-01T07:57:51;26.95;;;5.75;;
26536;SDS011;14204;51.262;5.488;2023-02-01T08:00:16;26.20;;;5.82;;
26536;SDS011;14204;51.262;5.488;2023-02-01T08:03:01;29.60;;;6.03;;
26536;SDS011;14204;51.262;5.488;2023-02-01T08:05:29;23.33;;;5.82;;
26536;SDS011;14204;51.262;5.488;2023-02-01T08:07:54;26.38;;;6.13;;
26536;SDS011;14204;51.262;5.488;2023-02-01T08:10:20;28.13;;;6.43;;
26536;SDS011;14204;51.262;5.488;2023-02-01T08:12:46;33.13;;;6.47;;
26536;SDS011;14204;51.262;5.488;2023-02-01T08:15:16;32.95;;;6.03;;
26536;SDS011;14204;51.262;5.488;2023-02-01T08:17:46;38.33;;;6.05;;
26536;SDS011;14204;51.262;5.488;2023-02-01T08:22:41;39.13;;;6.43;;
26536;SDS011;14204;51.262;5.488;2023-02-01T08:25:07;30.40;;;6.13;;
26536;SDS011;14204;51.262;5.488;2023-02-01T08:27:33;30.60;;;5.88;;
26536;SDS011;14204;51.262;5.488;2023-02-01T08:29:59;27.00;;;5.55;;
26536;SDS011;14204;51.262;5.488;2023-02-01T08:32:25;30.38;;;6.30;;
26536;SDS011;14204;51.262;5.488;2023-02-01T08:34:51;27.08;;;5.47;;
26536;SDS011;14204;51.262;5.488;2023-02-01T08:37:17;36.72;;;6.18;;
26536;SDS011;14204;51.262;5.488;2023-02-01T08:39:42;27.35;;;5.53;;
26536;SDS011;14204;51.262;5.488;2023-02-01T08:42:09;27.52;;;5.75;;
26536;SDS011;14204;51.262;5.488;2023-02-01T08:44:55;27.50;;;6.03;;
26536;SDS011;14204;51.262;5.488;2023-02-01T08:47:21;33.25;;;6.32;;
26536;SDS011;14204;51.262;5.488;2023-02-01T08:49:46;31.15;;;6.05;;
26536;SDS011;14204;51.262;5.488;2023-02-01T08:52:12;27.77;;;6.18;;
26536;SDS011;14204;51.262;5.488;2023-02-01T08:54:38;32.90;;;6.32;;
26536;SDS011;14204;51.262;5.488;2023-02-01T08:57:06;22.90;;;4.93;;
26536;SDS011;14204;51.262;5.488;2023-02-01T08:59:31;30.08;;;6.15;;
26536;SDS011;14204;51.262;5.488;2023-02-01T09:01:57;32.20;;;6.05;;
26536;SDS011;14204;51.262;5.488;2023-02-01T09:04:22;29.30;;;6.57;;
26536;SDS011;14204;51.262;5.488;2023-02-01T09:06:48;32.45;;;5.55;;
26536;SDS011;14204;51.262;5.488;2023-02-01T09:09:14;29.52;;;6.10;;
26536;SDS011;14204;51.262;5.488;2023-02-01T09:11:39;35.60;;;6.50;;
26536;SDS011;14204;51.262;5.488;2023-02-01T09:14:05;30.42;;;5.97;;
26536;SDS011;14204;51.262;5.488;2023-02-01T09:16:31;34.90;;;6.07;;
26536;SDS011;14204;51.262;5.488;2023-02-01T09:18:56;27.70;;;6.25;;
26536;SDS011;14204;51.262;5.488;2023-02-01T09:21:22;38.90;;;6.05;;
26536;SDS011;14204;51.262;5.488;2023-02-01T09:23:48;22.23;;;5.57;;
26536;SDS011;14204;51.262;5.488;2023-02-01T09:26:16;24.15;;;6.85;;
26536;SDS011;14204;51.262;5.488;2023-02-01T09:28:42;29.98;;;6.43;;
26536;SDS011;14204;51.262;5.488;2023-02-01T09:31:07;33.70;;;6.32;;
26536;SDS011;14204;51.262;5.488;2023-02-01T09:33:33;34.60;;;5.78;;
26536;SDS011;14204;51.262;5.488;2023-02-01T09:36:00;38.75;;;6.38;;
26536;SDS011;14204;51.262;5.488;2023-02-01T09:38:27;26.42;;;5.75;;
26536;SDS011;14204;51.262;5.488;2023-02-01T09:40:53;28.45;;;6.55;;
26536;SDS011;14204;51.262;5.488;2023-02-01T09:43:26;30.67;;;6.40;;
26536;SDS011;14204;51.262;5.488;2023-02-01T09:48:53;28.80;;;6.28;;
26536;SDS011;14204;51.262;5.488;2023-02-01T09:51:22;27.00;;;6.28;;
26536;SDS011;14204;51.262;5.488;2023-02-01T09:53:59;30.13;;;6.07;;
26536;SDS011;14204;51.262;5.488;2023-02-01T09:56:35;41.15;;;6.95;;
26536;SDS011;14204;51.262;5.488;2023-02-01T10:01:51;36.58;;;6.28;;
26536;SDS011;14204;51.262;5.488;2023-02-01T10:04:17;29.08;;;6.60;;
26536;SDS011;14204;51.262;5.488;2023-02-01T10:09:16;29.58;;;5.43;;
26536;SDS011;14204;51.262;5.488;2023-02-01T10:20:16;24.23;;;5.95;;
26536;SDS011;14204;51.262;5.488;2023-02-01T10:28:19;26.60;;;5.82;;
26536;SDS011;14204;51.262;5.488;2023-02-01T10:30:47;23.95;;;5.88;;
26536;SDS011;14204;51.262;5.488;2023-02-01T10:33:18;23.73;;;4.95;;
26536;SDS011;14204;51.262;5.488;2023-02-01T10:35:45;22.77;;;6.35;;
26536;SDS011;14204;51.262;5.488;2023-02-01T10:38:16;27.25;;;5.25;;
26536;SDS011;14204;51.262;5.488;2023-02-01T10:40:51;26.17;;;6.03;;
26536;SDS011;14204;51.262;5.488;2023-02-01T10:43:20;24.75;;;5.95;;
26536;SDS011;14204;51.262;5.488;2023-02-01T10:45:46;29.00;;;5.65;;
26536;SDS011;14204;51.262;5.488;2023-02-01T10:48:12;25.55;;;5.65;;
26536;SDS011;14204;51.262;5.488;2023-02-01T10:50:44;18.98;;;5.10;;
26536;SDS011;14204;51.262;5.488;2023-02-01T10:56:23;24.50;;;6.28;;
26536;SDS011;14204;51.262;5.488;2023-02-01T10:58:51;25.40;;;5.63;;
26536;SDS011;14204;51.262;5.488;2023-02-01T11:01:27;27.23;;;4.75;;
26536;SDS011;14204;51.262;5.488;2023-02-01T11:04:10;25.23;;;5.38;;
26536;SDS011;14204;51.262;5.488;2023-02-01T11:06:42;25.50;;;5.40;;
26536;SDS011;14204;51.262;5.488;2023-02-01T11:16:51;24.73;;;5.07;;
26536;SDS011;14204;51.262;5.488;2023-02-01T11:19:19;24.63;;;5.50;;
26536;SDS011;14204;51.262;5.488;2023-02-01T11:21:49;28.40;;;5.43;;
26536;SDS011;14204;51.262;5.488;2023-02-01T11:24:29;20.92;;;5.00;;
26536;SDS011;14204;51.262;5.488;2023-02-01T11:26:59;19.55;;;4.85;;
26536;SDS011;14204;51.262;5.488;2023-02-01T11:29:28;20.55;;;4.78;;
26536;SDS011;14204;51.262;5.488;2023-02-01T11:32:01;26.38;;;4.88;;
26536;SDS011;14204;51.262;5.488;2023-02-01T11:34:31;22.00;;;5.38;;
26536;SDS011;14204;51.262;5.488;2023-02-01T11:37:03;24.08;;;4.20;;
26536;SDS011;14204;51.262;5.488;2023-02-01T11:39:35;27.55;;;4.70;;
26536;SDS011;14204;51.262;5.488;2023-02-01T11:42:03;26.30;;;4.50;;
26536;SDS011;14204;51.262;5.488;2023-02-01T11:44:40;15.23;;;4.10;;
26536;SDS011;14204;51.262;5.488;2023-02-01T11:47:31;17.25;;;4.38;;
26536;SDS011;14204;51.262;5.488;2023-02-01T11:50:08;20.60;;;4.53;;
26536;SDS011;14204;51.262;5.488;2023-02-01T11:55:48;17.88;;;4.18;;
26536;SDS011;14204;51.262;5.488;2023-02-01T12:04:01;18.75;;;3.42;;
26536;SDS011;14204;51.262;5.488;2023-02-01T12:06:54;12.43;;;2.90;;
26536;SDS011;14204;51.262;5.488;2023-02-01T12:09:41;13.68;;;2.63;;
26536;SDS011;14204;51.262;5.488;2023-02-01T12:26:13;14.40;;;2.72;;
26536;SDS011;14204;51.262;5.488;2023-02-01T12:39:30;12.48;;;2.78;;
26536;SDS011;14204;51.262;5.488;2023-02-01T12:44:52;14.82;;;3.03;;
26536;SDS011;14204;51.262;5.488;2023-02-01T12:47:24;14.18;;;2.80;;
26536;SDS011;14204;51.262;5.488;2023-02-01T12:50:05;15.63;;;3.42;;
26536;SDS011;14204;51.262;5.488;2023-02-01T12:52:47;19.92;;;3.10;;
26536;SDS011;14204;51.262;5.488;2023-02-01T12:58:03;10.52;;;3.03;;
26536;SDS011;14204;51.262;5.488;2023-02-01T13:00:40;13.98;;;3.35;;
26536;SDS011;14204;51.262;5.488;2023-02-01T13:08:18;11.77;;;2.67;;
26536;SDS011;14204;51.262;5.488;2023-02-01T13:11:05;21.80;;;4.35;;
26536;SDS011;14204;51.262;5.488;2023-02-01T13:16:24;17.30;;;3.67;;
26536;SDS011;14204;51.262;5.488;2023-02-01T13:21:41;15.90;;;2.50;;
26536;SDS011;14204;51.262;5.488;2023-02-01T13:27:10;16.67;;;3.67;;
26536;SDS011;14204;51.262;5.488;2023-02-01T13:29:47;20.38;;;3.55;;
26536;SDS011;14204;51.262;5.488;2023-02-01T13:43:36;13.80;;;3.10;;
26536;SDS011;14204;51.262;5.488;2023-02-01T13:46:07;11.60;;;3.00;;
26536;SDS011;14204;51.262;5.488;2023-02-01T13:48:45;14.13;;;2.88;;
26536;SDS011;14204;51.262;5.488;2023-02-01T13:54:07;21.02;;;3.65;;
26536;SDS011;14204;51.262;5.488;2023-02-01T13:57:05;21.08;;;4.70;;
26536;SDS011;14204;51.262;5.488;2023-02-01T14:23:47;16.83;;;3.85;;
26536;SDS011;14204;51.262;5.488;2023-02-01T14:31:34;21.00;;;3.95;;
26536;SDS011;14204;51.262;5.488;2023-02-01T14:34:11;22.95;;;3.55;;
26536;SDS011;14204;51.262;5.488;2023-02-01T14:37:12;27.33;;;3.80;;
26536;SDS011;14204;51.262;5.488;2023-02-01T14:39:59;22.67;;;4.15;;
26536;SDS011;14204;51.262;5.488;2023-02-01T14:42:44;22.80;;;3.50;;
26536;SDS011;14204;51.262;5.488;2023-02-01T14:47:50;24.80;;;4.18;;
26536;SDS011;14204;51.262;5.488;2023-02-01T14:55:52;25.63;;;4.93;;
26536;SDS011;14204;51.262;5.488;2023-02-01T15:01:17;20.27;;;4.07;;
26536;SDS011;14204;51.262;5.488;2023-02-01T15:08:49;33.75;;;5.28;;
26536;SDS011;14204;51.262;5.488;2023-02-01T15:11:19;16.58;;;4.80;;
26536;SDS011;14204;51.262;5.488;2023-02-01T15:13:49;23.58;;;5.05;;
26536;SDS011;14204;51.262;5.488;2023-02-01T15:16:18;25.45;;;5.25;;
26536;SDS011;14204;51.262;5.488;2023-02-01T15:18:45;28.33;;;4.75;;
26536;SDS011;14204;51.262;5.488;2023-02-01T15:21:45;34.33;;;5.57;;
26536;SDS011;14204;51.262;5.488;2023-02-01T15:24:11;23.70;;;4.72;;
26536;SDS011;14204;51.262;5.488;2023-02-01T15:26:39;24.00;;;4.55;;
26536;SDS011;14204;51.262;5.488;2023-02-01T15:29:05;24.65;;;4.93;;
26536;SDS011;14204;51.262;5.488;2023-02-01T15:31:35;20.52;;;3.90;;
26536;SDS011;14204;51.262;5.488;2023-02-01T15:34:03;23.33;;;4.60;;
26536;SDS011;14204;51.262;5.488;2023-02-01T15:36:29;22.42;;;4.45;;
26536;SDS011;14204;51.262;5.488;2023-02-01T15:41:51;18.77;;;4.00;;
26536;SDS011;14204;51.262;5.488;2023-02-01T15:46:51;23.50;;;3.88;;
26536;SDS011;14204;51.262;5.488;2023-02-01T15:51:56;18.00;;;3.20;;
26536;SDS011;14204;51.262;5.488;2023-02-01T15:54:25;16.80;;;4.15;;
26536;SDS011;14204;51.262;5.488;2023-02-01T15:57:07;20.63;;;4.25;;
26536;SDS011;14204;51.262;5.488;2023-02-01T15:59:43;29.17;;;4.28;;
26536;SDS011;14204;51.262;5.488;2023-02-01T16:05:03;19.83;;;4.28;;
26536;SDS011;14204;51.262;5.488;2023-02-01T16:07:31;22.60;;;3.90;;
26536;SDS011;14204;51.262;5.488;2023-02-01T16:09:59;13.68;;;3.47;;
26536;SDS011;14204;51.262;5.488;2023-02-01T16:15:03;17.20;;;4.32;;
26536;SDS011;14204;51.262;5.488;2023-02-01T16:17:30;16.83;;;3.30;;
26536;SDS011;14204;51.262;5.488;2023-02-01T16:19:56;23.13;;;3.65;;
26536;SDS011;14204;51.262;5.488;2023-02-01T16:22:22;15.90;;;4.32;;
26536;SDS011;14204;51.262;5.488;2023-02-01T16:24:48;30.45;;;4.50;;
26536;SDS011;14204;51.262;5.488;2023-02-01T16:27:14;16.52;;;3.15;;
26536;SDS011;14204;51.262;5.488;2023-02-01T16:29:40;20.35;;;4.18;;
26536;SDS011;14204;51.262;5.488;2023-02-01T16:32:06;27.92;;;5.25;;
26536;SDS011;14204;51.262;5.488;2023-02-01T16:34:38;21.13;;;3.78;;
26536;SDS011;14204;51.262;5.488;2023-02-01T16:37:05;14.07;;;3.75;;
26536;SDS011;14204;51.262;5.488;2023-02-01T16:39:34;26.85;;;3.72;;
26536;SDS011;14204;51.262;5.488;2023-02-01T16:42:00;21.58;;;4.03;;
26536;SDS011;14204;51.262;5.488;2023-02-01T16:44:35;22.48;;;4.60;;
26536;SDS011;14204;51.262;5.488;2023-02-01T16:47:01;19.20;;;4.40;;
26536;SDS011;14204;51.262;5.488;2023-02-01T16:49:27;25.95;;;4.32;;
26536;SDS011;14204;51.262;5.488;2023-02-01T16:51:55;20.13;;;4.47;;
26536;SDS011;14204;51.262;5.488;2023-02-01T16:54:22;26.67;;;6.10;;
26536;SDS011;14204;51.262;5.488;2023-02-01T16:56:48;19.92;;;4.25;;
26536;SDS011;14204;51.262;5.488;2023-02-01T16:59:14;21.77;;;4.32;;
26536;SDS011;14204;51.262;5.488;2023-02-01T17:01:40;24.15;;;3.80;;
26536;SDS011;14204;51.262;5.488;2023-02-01T17:04:07;17.65;;;4.55;;
26536;SDS011;14204;51.262;5.488;2023-02-01T17:06:34;20.38;;;3.97;;
26536;SDS011;14204;51.262;5.488;2023-02-01T17:09:04;18.23;;;3.95;;
26536;SDS011;14204;51.262;5.488;2023-02-01T17:11:30;20.17;;;5.10;;
26536;SDS011;14204;51.262;5.488;2023-02-01T17:14:13;20.13;;;4.30;;
26536;SDS011;14204;51.262;5.488;2023-02-01T17:16:41;19.38;;;4.40;;
26536;SDS011;14204;51.262;5.488;2023-02-01T17:19:14;21.27;;;4.15;;
26536;SDS011;14204;51.262;5.488;2023-02-01T17:21:52;15.70;;;4.05;;
26536;SDS011;14204;51.262;5.488;2023-02-01T17:24:22;23.52;;;4.95;;
26536;SDS011;14204;51.262;5.488;2023-02-01T17:26:49;25.10;;;4.68;;
26536;SDS011;14204;51.262;5.488;2023-02-01T17:29:16;17.20;;;4.38;;
26536;SDS011;14204;51.262;5.488;2023-02-01T17:31:47;25.48;;;5.85;;
26536;SDS011;14204;51.262;5.488;2023-02-01T17:34:15;21.23;;;4.35;;
26536;SDS011;14204;51.262;5.488;2023-02-01T17:36:42;22.92;;;5.00;;
26536;SDS011;14204;51.262;5.488;2023-02-01T17:39:10;17.00;;;4.35;;
26536;SDS011;14204;51.262;5.488;2023-02-01T17:41:56;23.00;;;4.25;;
26536;SDS011;14204;51.262;5.488;2023-02-01T17:44:22;25.20;;;4.30;;
26536;SDS011;14204;51.262;5.488;2023-02-01T17:46:48;26.35;;;5.15;;
26536;SDS011;14204;51.262;5.488;2023-02-01T17:49:14;22.23;;;4.50;;
26536;SDS011;14204;51.262;5.488;2023-02-01T17:51:40;23.30;;;4.38;;
26536;SDS011;14204;51.262;5.488;2023-02-01T17:54:08;23.10;;;4.55;;
26536;SDS011;14204;51.262;5.488;2023-02-01T17:56:37;21.02;;;4.70;;